METAR AND TAF INFORMATION
METAR FOR BGBW
ADDS - METARS form results

(2044 UTC 24 January 2021)
Data provider http://aviationweather.gov/metar/data/
 
METAR text: BGBW 241950Z AUTO 06029G39KT 9999NDV NCD M02/M18 Q1015
Conditions at: BGBW (NARSSARSSUAQ , GL) observed 1950 UTC 24 January 2021
Temperature: -2.0°C (28°F)
Dewpoint: -18.0°C (-0°F) [RH = 28%]
Pressure (altimeter): 29.97 inches Hg (1015.0 mb)
Winds: from the ENE (60 degrees) at 33 MPH (29 knots; 14.9 m/s)
gusting to 45 MPH (39 knots; 20.1 m/s)
Visibility: missing
Ceiling: at least 12,000 feet AGL
Clouds: sky clear below 12,000 feet AGL
Weather: no significant weather observed at this time

 AIRPORT MAP

 RUNWAY INFORMATION
Runway 07 Runway length 6004 ft Runway width 148 ft
Runway elevation 11 ft Runway displaced threshold 0 ft Runway heading 41
Runway 25 Runway length 6004 ft Runway width 148 ft
Runway elevation 112 ft Runway displaced threshold 0 ft Runway heading 221

 AIRPORT FREQUENCIES
Type AFIS Name AFIS Frequency 119.1 MHZ

 AIRPORT NEAR NAVIGATION AIDS
Type NDB Name Narsarsuaq Frequency 359 KHZ
Type DME Name Narsarsuaq Frequency 111850 KHZ



Powered by Virtual Airlines Manager [v2.6.2]